sensor_id;sensor_type;location;lat;lon;timestamp;P1;durP1;ratioP1;P2;durP2;ratioP2
17566;SDS011;8901;52.088;5.084;2023-07-08T00:00:49;18.20;;;17.00;;
17566;SDS011;8901;52.088;5.084;2023-07-08T00:03:18;17.38;;;16.33;;
17566;SDS011;8901;52.088;5.084;2023-07-08T00:05:46;17.83;;;16.65;;
17566;SDS011;8901;52.088;5.084;2023-07-08T00:08:14;17.73;;;16.63;;
17566;SDS011;8901;52.088;5.084;2023-07-08T00:10:41;17.70;;;16.70;;
17566;SDS011;8901;52.088;5.084;2023-07-08T00:13:09;18.73;;;17.50;;
17566;SDS011;8901;52.088;5.084;2023-07-08T00:15:39;18.70;;;17.60;;
17566;SDS011;8901;52.088;5.084;2023-07-08T00:18:09;18.65;;;17.55;;
17566;SDS011;8901;52.088;5.084;2023-07-08T00:20:39;18.65;;;17.30;;
17566;SDS011;8901;52.088;5.084;2023-07-08T00:23:08;18.20;;;17.10;;
17566;SDS011;8901;52.088;5.084;2023-07-08T00:25:35;17.75;;;16.65;;
17566;SDS011;8901;52.088;5.084;2023-07-08T00:28:04;16.85;;;15.70;;
17566;SDS011;8901;52.088;5.084;2023-07-08T00:30:31;17.15;;;16.05;;
17566;SDS011;8901;52.088;5.084;2023-07-08T00:33:00;17.63;;;16.40;;
17566;SDS011;8901;52.088;5.084;2023-07-08T00:35:30;17.23;;;16.00;;
17566;SDS011;8901;52.088;5.084;2023-07-08T00:38:04;17.30;;;16.10;;
17566;SDS011;8901;52.088;5.084;2023-07-08T00:40:37;18.25;;;17.05;;
17566;SDS011;8901;52.088;5.084;2023-07-08T00:43:05;18.42;;;16.77;;
17566;SDS011;8901;52.088;5.084;2023-07-08T00:45:39;17.13;;;16.13;;
17566;SDS011;8901;52.088;5.084;2023-07-08T00:48:10;17.60;;;16.40;;
17566;SDS011;8901;52.088;5.084;2023-07-08T00:50:40;16.80;;;15.43;;
17566;SDS011;8901;52.088;5.084;2023-07-08T00:53:20;17.13;;;15.88;;
17566;SDS011;8901;52.088;5.084;2023-07-08T00:55:50;17.38;;;16.17;;
17566;SDS011;8901;52.088;5.084;2023-07-08T00:58:19;17.90;;;16.80;;
17566;SDS011;8901;52.088;5.084;2023-07-08T01:00:53;16.67;;;15.68;;
17566;SDS011;8901;52.088;5.084;2023-07-08T01:03:27;16.52;;;15.20;;
17566;SDS011;8901;52.088;5.084;2023-07-08T01:05:57;16.15;;;15.02;;
17566;SDS011;8901;52.088;5.084;2023-07-08T01:08:29;16.67;;;15.38;;
17566;SDS011;8901;52.088;5.084;2023-07-08T01:10:58;17.13;;;15.93;;
17566;SDS011;8901;52.088;5.084;2023-07-08T01:13:30;16.88;;;15.77;;
17566;SDS011;8901;52.088;5.084;2023-07-08T01:16:00;17.45;;;16.13;;
17566;SDS011;8901;52.088;5.084;2023-07-08T01:18:30;16.85;;;15.60;;
17566;SDS011;8901;52.088;5.084;2023-07-08T01:23:33;16.63;;;15.63;;
17566;SDS011;8901;52.088;5.084;2023-07-08T01:26:01;16.90;;;15.60;;
17566;SDS011;8901;52.088;5.084;2023-07-08T01:28:28;16.70;;;15.52;;
17566;SDS011;8901;52.088;5.084;2023-07-08T01:30:55;17.27;;;16.08;;
17566;SDS011;8901;52.088;5.084;2023-07-08T01:33:23;16.73;;;15.65;;
17566;SDS011;8901;52.088;5.084;2023-07-08T01:35:51;17.20;;;16.20;;
17566;SDS011;8901;52.088;5.084;2023-07-08T01:44:33;16.67;;;15.57;;
17566;SDS011;8901;52.088;5.084;2023-07-08T01:52:42;17.65;;;16.55;;
17566;SDS011;8901;52.088;5.084;2023-07-08T02:01:28;16.75;;;15.65;;
17566;SDS011;8901;52.088;5.084;2023-07-08T02:04:02;16.55;;;15.55;;
17566;SDS011;8901;52.088;5.084;2023-07-08T02:06:32;16.67;;;15.27;;
17566;SDS011;8901;52.088;5.084;2023-07-08T02:09:05;16.77;;;15.40;;
17566;SDS011;8901;52.088;5.084;2023-07-08T02:11:40;17.23;;;16.00;;
17566;SDS011;8901;52.088;5.084;2023-07-08T02:17:09;15.25;;;14.25;;
17566;SDS011;8901;52.088;5.084;2023-07-08T02:19:42;16.45;;;15.45;;
17566;SDS011;8901;52.088;5.084;2023-07-08T02:33:55;16.35;;;15.25;;
17566;SDS011;8901;52.088;5.084;2023-07-08T02:36:22;15.15;;;14.25;;
17566;SDS011;8901;52.088;5.084;2023-07-08T02:38:51;16.50;;;15.50;;
17566;SDS011;8901;52.088;5.084;2023-07-08T02:41:18;16.98;;;15.88;;
17566;SDS011;8901;52.088;5.084;2023-07-08T02:43:45;15.80;;;14.70;;
17566;SDS011;8901;52.088;5.084;2023-07-08T02:46:13;16.02;;;15.05;;
17566;SDS011;8901;52.088;5.084;2023-07-08T02:48:40;16.10;;;15.05;;
17566;SDS011;8901;52.088;5.084;2023-07-08T02:51:09;16.10;;;14.90;;
17566;SDS011;8901;52.088;5.084;2023-07-08T02:53:38;16.33;;;15.32;;
17566;SDS011;8901;52.088;5.084;2023-07-08T02:56:05;16.17;;;14.77;;
17566;SDS011;8901;52.088;5.084;2023-07-08T02:58:32;16.02;;;14.75;;
17566;SDS011;8901;52.088;5.084;2023-07-08T03:01:00;16.42;;;15.32;;
17566;SDS011;8901;52.088;5.084;2023-07-08T03:03:27;14.85;;;13.95;;
17566;SDS011;8901;52.088;5.084;2023-07-08T03:05:55;16.15;;;14.95;;
17566;SDS011;8901;52.088;5.084;2023-07-08T03:08:25;16.05;;;14.90;;
17566;SDS011;8901;52.088;5.084;2023-07-08T03:10:56;15.80;;;14.65;;
17566;SDS011;8901;52.088;5.084;2023-07-08T03:13:23;14.63;;;13.63;;
17566;SDS011;8901;52.088;5.084;2023-07-08T03:15:51;15.40;;;14.30;;
17566;SDS011;8901;52.088;5.084;2023-07-08T03:18:19;15.27;;;14.38;;
17566;SDS011;8901;52.088;5.084;2023-07-08T03:23:37;16.35;;;15.25;;
17566;SDS011;8901;52.088;5.084;2023-07-08T03:26:04;15.90;;;14.80;;
17566;SDS011;8901;52.088;5.084;2023-07-08T03:28:31;16.48;;;15.38;;
17566;SDS011;8901;52.088;5.084;2023-07-08T03:31:14;15.75;;;14.55;;
17566;SDS011;8901;52.088;5.084;2023-07-08T03:33:41;16.30;;;15.25;;
17566;SDS011;8901;52.088;5.084;2023-07-08T03:36:11;16.55;;;15.35;;
17566;SDS011;8901;52.088;5.084;2023-07-08T03:38:48;15.88;;;14.77;;
17566;SDS011;8901;52.088;5.084;2023-07-08T03:41:16;16.38;;;15.27;;
17566;SDS011;8901;52.088;5.084;2023-07-08T03:43:43;17.48;;;16.20;;
17566;SDS011;8901;52.088;5.084;2023-07-08T03:46:10;16.80;;;15.60;;
17566;SDS011;8901;52.088;5.084;2023-07-08T03:48:37;17.83;;;16.50;;
17566;SDS011;8901;52.088;5.084;2023-07-08T03:51:06;17.52;;;16.38;;
17566;SDS011;8901;52.088;5.084;2023-07-08T03:53:35;17.02;;;16.00;;
17566;SDS011;8901;52.088;5.084;2023-07-08T03:59:07;17.00;;;15.85;;
17566;SDS011;8901;52.088;5.084;2023-07-08T04:01:35;17.30;;;16.08;;
17566;SDS011;8901;52.088;5.084;2023-07-08T04:04:06;17.25;;;15.88;;
17566;SDS011;8901;52.088;5.084;2023-07-08T04:06:33;17.02;;;15.82;;
17566;SDS011;8901;52.088;5.084;2023-07-08T04:09:03;16.25;;;15.25;;
17566;SDS011;8901;52.088;5.084;2023-07-08T04:11:31;17.10;;;15.73;;
17566;SDS011;8901;52.088;5.084;2023-07-08T04:16:57;16.73;;;15.63;;
17566;SDS011;8901;52.088;5.084;2023-07-08T04:19:25;16.55;;;15.50;;
17566;SDS011;8901;52.088;5.084;2023-07-08T04:21:53;17.42;;;15.98;;
17566;SDS011;8901;52.088;5.084;2023-07-08T04:24:20;17.13;;;16.02;;
17566;SDS011;8901;52.088;5.084;2023-07-08T04:26:47;16.40;;;15.50;;
17566;SDS011;8901;52.088;5.084;2023-07-08T04:29:16;16.35;;;15.40;;
17566;SDS011;8901;52.088;5.084;2023-07-08T04:31:44;16.88;;;15.68;;
17566;SDS011;8901;52.088;5.084;2023-07-08T04:34:13;16.77;;;15.68;;
17566;SDS011;8901;52.088;5.084;2023-07-08T04:36:40;16.55;;;15.35;;
17566;SDS011;8901;52.088;5.084;2023-07-08T04:39:08;17.30;;;15.93;;
17566;SDS011;8901;52.088;5.084;2023-07-08T04:41:36;17.17;;;16.08;;
17566;SDS011;8901;52.088;5.084;2023-07-08T04:44:05;16.80;;;15.80;;
17566;SDS011;8901;52.088;5.084;2023-07-08T04:46:34;16.50;;;15.27;;
17566;SDS011;8901;52.088;5.084;2023-07-08T04:49:04;16.45;;;15.25;;
17566;SDS011;8901;52.088;5.084;2023-07-08T04:51:33;17.08;;;15.95;;
17566;SDS011;8901;52.088;5.084;2023-07-08T04:54:00;18.08;;;16.98;;
17566;SDS011;8901;52.088;5.084;2023-07-08T04:56:34;17.63;;;16.40;;
17566;SDS011;8901;52.088;5.084;2023-07-08T04:59:02;17.25;;;16.25;;
17566;SDS011;8901;52.088;5.084;2023-07-08T05:01:29;17.55;;;16.25;;
17566;SDS011;8901;52.088;5.084;2023-07-08T05:03:56;16.55;;;15.55;;
17566;SDS011;8901;52.088;5.084;2023-07-08T05:06:24;16.75;;;15.65;;
17566;SDS011;8901;52.088;5.084;2023-07-08T05:08:54;16.60;;;15.40;;
17566;SDS011;8901;52.088;5.084;2023-07-08T05:11:21;17.67;;;16.38;;
17566;SDS011;8901;52.088;5.084;2023-07-08T05:13:48;17.50;;;16.50;;
17566;SDS011;8901;52.088;5.084;2023-07-08T05:16:16;16.73;;;15.52;;
17566;SDS011;8901;52.088;5.084;2023-07-08T05:18:43;16.35;;;15.27;;
17566;SDS011;8901;52.088;5.084;2023-07-08T05:21:13;16.30;;;15.15;;
17566;SDS011;8901;52.088;5.084;2023-07-08T05:23:41;16.85;;;15.85;;
17566;SDS011;8901;52.088;5.084;2023-07-08T05:26:10;16.50;;;15.45;;
17566;SDS011;8901;52.088;5.084;2023-07-08T05:28:38;16.48;;;15.38;;
17566;SDS011;8901;52.088;5.084;2023-07-08T05:31:05;17.02;;;16.02;;
17566;SDS011;8901;52.088;5.084;2023-07-08T05:33:33;17.45;;;16.35;;
17566;SDS011;8901;52.088;5.084;2023-07-08T05:36:00;17.33;;;16.27;;
17566;SDS011;8901;52.088;5.084;2023-07-08T05:38:27;17.58;;;16.52;;
17566;SDS011;8901;52.088;5.084;2023-07-08T05:40:55;16.88;;;15.48;;
17566;SDS011;8901;52.088;5.084;2023-07-08T05:43:24;16.80;;;15.60;;
17566;SDS011;8901;52.088;5.084;2023-07-08T05:45:51;17.02;;;16.02;;
17566;SDS011;8901;52.088;5.084;2023-07-08T05:48:18;17.35;;;16.13;;
17566;SDS011;8901;52.088;5.084;2023-07-08T05:50:46;16.95;;;15.88;;
17566;SDS011;8901;52.088;5.084;2023-07-08T05:53:13;17.38;;;16.05;;
17566;SDS011;8901;52.088;5.084;2023-07-08T05:55:40;15.77;;;14.75;;
17566;SDS011;8901;52.088;5.084;2023-07-08T05:58:08;16.85;;;15.80;;
17566;SDS011;8901;52.088;5.084;2023-07-08T06:00:37;16.95;;;15.85;;
17566;SDS011;8901;52.088;5.084;2023-07-08T06:03:04;17.23;;;16.13;;
17566;SDS011;8901;52.088;5.084;2023-07-08T06:05:31;16.92;;;15.88;;
17566;SDS011;8901;52.088;5.084;2023-07-08T06:07:59;15.95;;;14.95;;
17566;SDS011;8901;52.088;5.084;2023-07-08T06:10:26;16.77;;;15.65;;
17566;SDS011;8901;52.088;5.084;2023-07-08T06:12:53;16.33;;;15.32;;
17566;SDS011;8901;52.088;5.084;2023-07-08T06:15:21;16.75;;;15.55;;
17566;SDS011;8901;52.088;5.084;2023-07-08T06:17:49;16.52;;;15.43;;
17566;SDS011;8901;52.088;5.084;2023-07-08T06:20:17;16.98;;;15.68;;
17566;SDS011;8901;52.088;5.084;2023-07-08T06:22:44;16.00;;;15.00;;
17566;SDS011;8901;52.088;5.084;2023-07-08T06:25:11;17.98;;;15.63;;
17566;SDS011;8901;52.088;5.084;2023-07-08T06:27:39;16.30;;;15.30;;
17566;SDS011;8901;52.088;5.084;2023-07-08T06:30:08;16.13;;;14.98;;
17566;SDS011;8901;52.088;5.084;2023-07-08T06:32:36;17.40;;;16.15;;
17566;SDS011;8901;52.088;5.084;2023-07-08T06:35:05;16.80;;;15.57;;
17566;SDS011;8901;52.088;5.084;2023-07-08T06:37:32;16.90;;;15.80;;
17566;SDS011;8901;52.088;5.084;2023-07-08T06:39:59;16.92;;;15.75;;
17566;SDS011;8901;52.088;5.084;2023-07-08T06:42:28;16.42;;;15.23;;
17566;SDS011;8901;52.088;5.084;2023-07-08T06:44:55;17.10;;;16.00;;
17566;SDS011;8901;52.088;5.084;2023-07-08T06:47:23;16.80;;;15.52;;
17566;SDS011;8901;52.088;5.084;2023-07-08T06:49:50;16.50;;;15.50;;
17566;SDS011;8901;52.088;5.084;2023-07-08T06:52:19;16.15;;;15.02;;
17566;SDS011;8901;52.088;5.084;2023-07-08T06:54:47;15.70;;;14.80;;
17566;SDS011;8901;52.088;5.084;2023-07-08T06:57:17;15.48;;;14.40;;
17566;SDS011;8901;52.088;5.084;2023-07-08T06:59:44;15.10;;;13.80;;
17566;SDS011;8901;52.088;5.084;2023-07-08T07:02:12;16.25;;;15.10;;
17566;SDS011;8901;52.088;5.084;2023-07-08T07:04:39;17.05;;;16.05;;
17566;SDS011;8901;52.088;5.084;2023-07-08T07:07:06;15.63;;;14.63;;
17566;SDS011;8901;52.088;5.084;2023-07-08T07:09:35;17.05;;;15.90;;
17566;SDS011;8901;52.088;5.084;2023-07-08T07:12:02;15.63;;;14.63;;
17566;SDS011;8901;52.088;5.084;2023-07-08T07:14:32;16.10;;;15.10;;
17566;SDS011;8901;52.088;5.084;2023-07-08T07:16:59;17.25;;;16.08;;
17566;SDS011;8901;52.088;5.084;2023-07-08T07:19:27;16.52;;;15.23;;
17566;SDS011;8901;52.088;5.084;2023-07-08T07:21:54;16.55;;;15.35;;
17566;SDS011;8901;52.088;5.084;2023-07-08T07:24:21;15.73;;;14.45;;
17566;SDS011;8901;52.088;5.084;2023-07-08T07:26:50;17.08;;;15.88;;
17566;SDS011;8901;52.088;5.084;2023-07-08T07:29:17;16.20;;;15.20;;
17566;SDS011;8901;52.088;5.084;2023-07-08T07:31:46;16.67;;;15.68;;
17566;SDS011;8901;52.088;5.084;2023-07-08T07:34:14;16.20;;;15.10;;
17566;SDS011;8901;52.088;5.084;2023-07-08T07:36:41;16.30;;;15.20;;
17566;SDS011;8901;52.088;5.084;2023-07-08T07:39:08;16.45;;;15.38;;
17566;SDS011;8901;52.088;5.084;2023-07-08T07:41:35;16.45;;;15.35;;
17566;SDS011;8901;52.088;5.084;2023-07-08T07:44:04;16.35;;;15.25;;
17566;SDS011;8901;52.088;5.084;2023-07-08T07:46:31;16.33;;;15.32;;
17566;SDS011;8901;52.088;5.084;2023-07-08T07:48:59;17.23;;;16.02;;
17566;SDS011;8901;52.088;5.084;2023-07-08T07:51:26;15.55;;;14.65;;
17566;SDS011;8901;52.088;5.084;2023-07-08T07:53:53;16.92;;;15.63;;
17566;SDS011;8901;52.088;5.084;2023-07-08T07:56:20;16.45;;;15.40;;
17566;SDS011;8901;52.088;5.084;2023-07-08T07:58:47;16.70;;;15.60;;
17566;SDS011;8901;52.088;5.084;2023-07-08T08:01:16;16.60;;;15.40;;
17566;SDS011;8901;52.088;5.084;2023-07-08T08:03:44;16.70;;;15.60;;
17566;SDS011;8901;52.088;5.084;2023-07-08T08:06:12;15.38;;;14.32;;
17566;SDS011;8901;52.088;5.084;2023-07-08T08:08:41;16.60;;;15.40;;
17566;SDS011;8901;52.088;5.084;2023-07-08T08:11:08;16.58;;;15.18;;
17566;SDS011;8901;52.088;5.084;2023-07-08T08:13:35;16.30;;;15.15;;
17566;SDS011;8901;52.088;5.084;2023-07-08T08:16:03;16.38;;;14.98;;
17566;SDS011;8901;52.088;5.084;2023-07-08T08:18:31;17.42;;;16.33;;
17566;SDS011;8901;52.088;5.084;2023-07-08T08:20:59;17.80;;;16.48;;
17566;SDS011;8901;52.088;5.084;2023-07-08T08:23:26;17.33;;;16.10;;
17566;SDS011;8901;52.088;5.084;2023-07-08T08:25:53;17.30;;;15.82;;
17566;SDS011;8901;52.088;5.084;2023-07-08T08:28:21;17.42;;;16.13;;
17566;SDS011;8901;52.088;5.084;2023-07-08T08:30:48;17.48;;;16.27;;
17566;SDS011;8901;52.088;5.084;2023-07-08T08:33:16;16.90;;;15.60;;
17566;SDS011;8901;52.088;5.084;2023-07-08T08:35:45;15.68;;;14.48;;
17566;SDS011;8901;52.088;5.084;2023-07-08T08:38:12;14.63;;;13.32;;
17566;SDS011;8901;52.088;5.084;2023-07-08T08:40:39;13.30;;;12.02;;
17566;SDS011;8901;52.088;5.084;2023-07-08T08:43:09;11.93;;;11.02;;
17566;SDS011;8901;52.088;5.084;2023-07-08T08:45:39;17.08;;;15.65;;
17566;SDS011;8901;52.088;5.084;2023-07-08T08:48:10;16.20;;;14.80;;
17566;SDS011;8901;52.088;5.084;2023-07-08T08:50:40;15.25;;;14.20;;
17566;SDS011;8901;52.088;5.084;2023-07-08T08:53:10;14.70;;;13.40;;
17566;SDS011;8901;52.088;5.084;2023-07-08T08:55:38;16.27;;;15.18;;
17566;SDS011;8901;52.088;5.084;2023-07-08T08:58:09;16.88;;;15.77;;
17566;SDS011;8901;52.088;5.084;2023-07-08T09:00:44;16.77;;;15.15;;
17566;SDS011;8901;52.088;5.084;2023-07-08T09:03:12;17.30;;;15.88;;
17566;SDS011;8901;52.088;5.084;2023-07-08T09:05:41;13.38;;;12.48;;
17566;SDS011;8901;52.088;5.084;2023-07-08T09:08:12;15.23;;;13.90;;
17566;SDS011;8901;52.088;5.084;2023-07-08T09:10:42;19.30;;;17.73;;
17566;SDS011;8901;52.088;5.084;2023-07-08T09:13:11;17.00;;;15.27;;
17566;SDS011;8901;52.088;5.084;2023-07-08T09:15:41;18.13;;;16.80;;
17566;SDS011;8901;52.088;5.084;2023-07-08T09:18:13;17.20;;;15.70;;
17566;SDS011;8901;52.088;5.084;2023-07-08T09:20:41;18.10;;;16.63;;
17566;SDS011;8901;52.088;5.084;2023-07-08T09:23:10;17.95;;;16.35;;
17566;SDS011;8901;52.088;5.084;2023-07-08T09:25:46;17.50;;;16.23;;
17566;SDS011;8901;52.088;5.084;2023-07-08T09:28:14;17.10;;;15.38;;
17566;SDS011;8901;52.088;5.084;2023-07-08T09:30:41;16.08;;;14.55;;
17566;SDS011;8901;52.088;5.084;2023-07-08T09:33:12;18.67;;;16.33;;
17566;SDS011;8901;52.088;5.084;2023-07-08T09:35:40;17.55;;;16.33;;
17566;SDS011;8901;52.088;5.084;2023-07-08T09:38:08;21.35;;;19.23;;
17566;SDS011;8901;52.088;5.084;2023-07-08T09:40:35;17.00;;;15.60;;
17566;SDS011;8901;52.088;5.084;2023-07-08T09:43:09;19.10;;;17.70;;
17566;SDS011;8901;52.088;5.084;2023-07-08T09:45:40;19.23;;;17.92;;
17566;SDS011;8901;52.088;5.084;2023-07-08T09:48:13;20.58;;;19.17;;
17566;SDS011;8901;52.088;5.084;2023-07-08T09:50:42;20.75;;;19.20;;
17566;SDS011;8901;52.088;5.084;2023-07-08T09:53:10;21.17;;;19.42;;
17566;SDS011;8901;52.088;5.084;2023-07-08T09:55:39;20.30;;;18.90;;
17566;SDS011;8901;52.088;5.084;2023-07-08T09:58:10;19.77;;;18.33;;
17566;SDS011;8901;52.088;5.084;2023-07-08T10:00:38;20.08;;;18.77;;
17566;SDS011;8901;52.088;5.084;2023-07-08T10:03:08;20.33;;;18.83;;
17566;SDS011;8901;52.088;5.084;2023-07-08T10:05:39;22.15;;;20.65;;
17566;SDS011;8901;52.088;5.084;2023-07-08T10:08:10;22.45;;;20.65;;
17566;SDS011;8901;52.088;5.084;2023-07-08T10:10:38;20.65;;;19.05;;
17566;SDS011;8901;52.088;5.084;2023-07-08T10:13:12;20.10;;;18.58;;
17566;SDS011;8901;52.088;5.084;2023-07-08T10:15:44;21.40;;;19.90;;
17566;SDS011;8901;52.088;5.084;2023-07-08T10:18:14;20.98;;;19.38;;
17566;SDS011;8901;52.088;5.084;2023-07-08T10:20:46;21.75;;;20.23;;
17566;SDS011;8901;52.088;5.084;2023-07-08T10:23:20;20.25;;;18.95;;
17566;SDS011;8901;52.088;5.084;2023-07-08T10:25:52;23.27;;;21.67;;
17566;SDS011;8901;52.088;5.084;2023-07-08T10:28:25;24.42;;;22.73;;
17566;SDS011;8901;52.088;5.084;2023-07-08T10:33:56;20.95;;;19.25;;
17566;SDS011;8901;52.088;5.084;2023-07-08T10:36:28;19.85;;;18.35;;
17566;SDS011;8901;52.088;5.084;2023-07-08T10:38:59;23.00;;;21.17;;
17566;SDS011;8901;52.088;5.084;2023-07-08T10:41:47;21.27;;;19.75;;
17566;SDS011;8901;52.088;5.084;2023-07-08T10:44:17;22.10;;;20.50;;
17566;SDS011;8901;52.088;5.084;2023-07-08T10:46:48;21.88;;;20.38;;
17566;SDS011;8901;52.088;5.084;2023-07-08T10:49:23;20.00;;;18.45;;
17566;SDS011;8901;52.088;5.084;2023-07-08T10:51:57;19.52;;;18.02;;
17566;SDS011;8901;52.088;5.084;2023-07-08T10:54:34;19.95;;;18.45;;
17566;SDS011;8901;52.088;5.084;2023-07-08T10:57:07;18.55;;;17.35;;
17566;SDS011;8901;52.088;5.084;2023-07-08T10:59:45;18.83;;;17.17;;
17566;SDS011;8901;52.088;5.084;2023-07-08T11:05:13;18.88;;;17.42;;
17566;SDS011;8901;52.088;5.084;2023-07-08T11:07:44;20.15;;;18.52;;
17566;SDS011;8901;52.088;5.084;2023-07-08T11:10:14;20.20;;;18.80;;
17566;SDS011;8901;52.088;5.084;2023-07-08T11:12:44;19.65;;;18.23;;
17566;SDS011;8901;52.088;5.084;2023-07-08T11:15:15;18.77;;;17.00;;
17566;SDS011;8901;52.088;5.084;2023-07-08T11:17:44;20.13;;;18.38;;
17566;SDS011;8901;52.088;5.084;2023-07-08T11:20:15;20.52;;;19.13;;
17566;SDS011;8901;52.088;5.084;2023-07-08T11:22:45;20.77;;;19.17;;
17566;SDS011;8901;52.088;5.084;2023-07-08T11:25:16;21.33;;;19.88;;
17566;SDS011;8901;52.088;5.084;2023-07-08T11:27:44;19.17;;;17.77;;
17566;SDS011;8901;52.088;5.084;2023-07-08T11:30:14;19.80;;;18.20;;
17566;SDS011;8901;52.088;5.084;2023-07-08T11:32:43;18.65;;;17.30;;
17566;SDS011;8901;52.088;5.084;2023-07-08T11:35:16;21.05;;;19.48;;
17566;SDS011;8901;52.088;5.084;2023-07-08T11:37:47;22.42;;;20.63;;
17566;SDS011;8901;52.088;5.084;2023-07-08T11:40:18;22.25;;;20.58;;
17566;SDS011;8901;52.088;5.084;2023-07-08T11:42:47;21.35;;;19.88;;
17566;SDS011;8901;52.088;5.084;2023-07-08T11:45:20;21.80;;;20.15;;
17566;SDS011;8901;52.088;5.084;2023-07-08T11:47:50;21.50;;;20.00;;
17566;SDS011;8901;52.088;5.084;2023-07-08T11:50:20;22.33;;;20.77;;
17566;SDS011;8901;52.088;5.084;2023-07-08T11:52:51;22.67;;;20.98;;
17566;SDS011;8901;52.088;5.084;2023-07-08T11:55:23;20.00;;;18.70;;
17566;SDS011;8901;52.088;5.084;2023-07-08T11:57:54;20.25;;;18.75;;
17566;SDS011;8901;52.088;5.084;2023-07-08T12:00:23;19.80;;;18.30;;
17566;SDS011;8901;52.088;5.084;2023-07-08T12:02:53;20.73;;;19.20;;
17566;SDS011;8901;52.088;5.084;2023-07-08T12:05:32;19.52;;;18.05;;
17566;SDS011;8901;52.088;5.084;2023-07-08T12:08:00;20.15;;;18.73;;
17566;SDS011;8901;52.088;5.084;2023-07-08T12:10:31;20.15;;;18.63;;
17566;SDS011;8901;52.088;5.084;2023-07-08T12:13:00;21.45;;;19.98;;
17566;SDS011;8901;52.088;5.084;2023-07-08T12:15:28;19.38;;;17.98;;
17566;SDS011;8901;52.088;5.084;2023-07-08T12:17:56;23.63;;;22.00;;
17566;SDS011;8901;52.088;5.084;2023-07-08T12:20:26;23.15;;;21.30;;
17566;SDS011;8901;52.088;5.084;2023-07-08T12:22:55;25.33;;;23.30;;
17566;SDS011;8901;52.088;5.084;2023-07-08T12:25:23;23.10;;;21.48;;
17566;SDS011;8901;52.088;5.084;2023-07-08T12:27:51;24.83;;;23.13;;
17566;SDS011;8901;52.088;5.084;2023-07-08T12:30:18;26.73;;;24.73;;
17566;SDS011;8901;52.088;5.084;2023-07-08T12:32:46;26.63;;;24.63;;
17566;SDS011;8901;52.088;5.084;2023-07-08T12:35:18;25.45;;;23.60;;
17566;SDS011;8901;52.088;5.084;2023-07-08T12:37:46;25.52;;;23.63;;
17566;SDS011;8901;52.088;5.084;2023-07-08T12:40:15;24.20;;;22.40;;
17566;SDS011;8901;52.088;5.084;2023-07-08T12:42:43;24.63;;;22.80;;
17566;SDS011;8901;52.088;5.084;2023-07-08T12:45:14;25.17;;;23.42;;
17566;SDS011;8901;52.088;5.084;2023-07-08T12:47:42;26.20;;;24.25;;
17566;SDS011;8901;52.088;5.084;2023-07-08T12:50:10;25.45;;;23.45;;
17566;SDS011;8901;52.088;5.084;2023-07-08T12:55:42;20.70;;;19.20;;
17566;SDS011;8901;52.088;5.084;2023-07-08T12:58:12;20.58;;;19.08;;
17566;SDS011;8901;52.088;5.084;2023-07-08T13:09:33;20.38;;;18.98;;
17566;SDS011;8901;52.088;5.084;2023-07-08T13:12:12;21.40;;;19.73;;
17566;SDS011;8901;52.088;5.084;2023-07-08T13:17:34;22.83;;;21.23;;
17566;SDS011;8901;52.088;5.084;2023-07-08T13:20:04;22.95;;;21.15;;
17566;SDS011;8901;52.088;5.084;2023-07-08T13:45:03;22.02;;;20.38;;
17566;SDS011;8901;52.088;5.084;2023-07-08T13:53:22;22.23;;;20.73;;
17566;SDS011;8901;52.088;5.084;2023-07-08T13:56:01;21.73;;;20.23;;
17566;SDS011;8901;52.088;5.084;2023-07-08T13:58:41;22.65;;;21.05;;
17566;SDS011;8901;52.088;5.084;2023-07-08T14:01:28;23.40;;;21.60;;
17566;SDS011;8901;52.088;5.084;2023-07-08T14:06:59;24.20;;;22.30;;
17566;SDS011;8901;52.088;5.084;2023-07-08T14:09:31;23.45;;;21.83;;
17566;SDS011;8901;52.088;5.084;2023-07-08T14:17:52;23.85;;;22.02;;
17566;SDS011;8901;52.088;5.084;2023-07-08T14:35:28;24.13;;;22.38;;
17566;SDS011;8901;52.088;5.084;2023-07-08T14:38:08;24.63;;;22.63;;
17566;SDS011;8901;52.088;5.084;2023-07-08T14:43:38;24.05;;;21.90;;
17566;SDS011;8901;52.088;5.084;2023-07-08T14:49:11;21.65;;;20.15;;
17566;SDS011;8901;52.088;5.084;2023-07-08T14:51:50;23.65;;;21.95;;
17566;SDS011;8901;52.088;5.084;2023-07-08T14:54:29;20.85;;;19.35;;
17566;SDS011;8901;52.088;5.084;2023-07-08T14:56:56;23.10;;;21.00;;
17566;SDS011;8901;52.088;5.084;2023-07-08T15:02:20;23.70;;;21.73;;
17566;SDS011;8901;52.088;5.084;2023-07-08T15:04:48;23.15;;;21.55;;
17566;SDS011;8901;52.088;5.084;2023-07-08T15:07:20;23.23;;;21.63;;
17566;SDS011;8901;52.088;5.084;2023-07-08T15:09:47;23.75;;;22.00;;
17566;SDS011;8901;52.088;5.084;2023-07-08T15:12:14;23.40;;;21.67;;
17566;SDS011;8901;52.088;5.084;2023-07-08T15:14:41;23.55;;;21.95;;
17566;SDS011;8901;52.088;5.084;2023-07-08T15:17:24;23.33;;;21.63;;
17566;SDS011;8901;52.088;5.084;2023-07-08T15:19:51;23.67;;;21.88;;
17566;SDS011;8901;52.088;5.084;2023-07-08T15:22:20;23.90;;;21.92;;
17566;SDS011;8901;52.088;5.084;2023-07-08T15:24:47;23.52;;;21.83;;
17566;SDS011;8901;52.088;5.084;2023-07-08T15:27:15;23.83;;;22.02;;
17566;SDS011;8901;52.088;5.084;2023-07-08T15:29:42;23.58;;;21.90;;
17566;SDS011;8901;52.088;5.084;2023-07-08T15:32:10;22.30;;;20.80;;
17566;SDS011;8901;52.088;5.084;2023-07-08T15:34:38;22.83;;;21.02;;
17566;SDS011;8901;52.088;5.084;2023-07-08T15:37:06;23.48;;;21.60;;
17566;SDS011;8901;52.088;5.084;2023-07-08T15:39:34;23.65;;;21.83;;
17566;SDS011;8901;52.088;5.084;2023-07-08T15:42:02;21.83;;;20.23;;
17566;SDS011;8901;52.088;5.084;2023-07-08T15:44:29;21.90;;;20.40;;
17566;SDS011;8901;52.088;5.084;2023-07-08T15:46:56;20.90;;;19.40;;
17566;SDS011;8901;52.088;5.084;2023-07-08T15:49:24;21.27;;;19.77;;
17566;SDS011;8901;52.088;5.084;2023-07-08T15:51:55;21.30;;;19.60;;
17566;SDS011;8901;52.088;5.084;2023-07-08T15:54:22;21.33;;;19.55;;
17566;SDS011;8901;52.088;5.084;2023-07-08T15:56:52;22.17;;;20.58;;
17566;SDS011;8901;52.088;5.084;2023-07-08T15:59:21;21.40;;;19.75;;
17566;SDS011;8901;52.088;5.084;2023-07-08T16:01:48;21.55;;;19.83;;
17566;SDS011;8901;52.088;5.084;2023-07-08T16:04:20;23.42;;;21.60;;
17566;SDS011;8901;52.088;5.084;2023-07-08T16:06:48;22.75;;;21.02;;
17566;SDS011;8901;52.088;5.084;2023-07-08T16:09:15;22.65;;;20.95;;
17566;SDS011;8901;52.088;5.084;2023-07-08T16:11:43;20.75;;;19.25;;
17566;SDS011;8901;52.088;5.084;2023-07-08T16:14:12;23.23;;;21.42;;
17566;SDS011;8901;52.088;5.084;2023-07-08T16:16:40;21.98;;;20.27;;
17566;SDS011;8901;52.088;5.084;2023-07-08T16:19:08;23.08;;;21.13;;
17566;SDS011;8901;52.088;5.084;2023-07-08T16:21:36;22.90;;;21.30;;
17566;SDS011;8901;52.088;5.084;2023-07-08T16:24:04;23.65;;;21.73;;
17566;SDS011;8901;52.088;5.084;2023-07-08T16:29:36;22.90;;;21.30;;
17566;SDS011;8901;52.088;5.084;2023-07-08T16:32:04;22.55;;;20.95;;
17566;SDS011;8901;52.088;5.084;2023-07-08T16:34:32;23.60;;;21.90;;
17566;SDS011;8901;52.088;5.084;2023-07-08T16:36:59;24.73;;;22.92;;
17566;SDS011;8901;52.088;5.084;2023-07-08T16:39:27;23.95;;;22.15;;
17566;SDS011;8901;52.088;5.084;2023-07-08T16:41:55;23.63;;;21.83;;
17566;SDS011;8901;52.088;5.084;2023-07-08T16:44:22;24.27;;;22.25;;
17566;SDS011;8901;52.088;5.084;2023-07-08T16:46:59;22.38;;;20.85;;
17566;SDS011;8901;52.088;5.084;2023-07-08T16:49:30;20.63;;;19.13;;
17566;SDS011;8901;52.088;5.084;2023-07-08T16:51:58;23.73;;;21.92;;
17566;SDS011;8901;52.088;5.084;2023-07-08T16:54:25;25.27;;;23.23;;